createdAt,value
2022-10-18T00:01:05.874Z,11.55
2022-10-18T00:06:10.755Z,10.55
2022-10-18T00:11:13.502Z,11.23
2022-10-18T00:16:17.916Z,12.50
2022-10-18T00:21:24.095Z,11.30
2022-10-18T00:26:28.724Z,12.90
2022-10-18T00:31:33.649Z,12.30
2022-10-18T00:36:37.830Z,12.98
2022-10-18T00:41:40.587Z,12.05
2022-10-18T00:46:45.679Z,13.55
2022-10-18T00:51:52.830Z,12.73
2022-10-18T00:56:55.718Z,13.35
2022-10-18T01:01:58.603Z,13.70
2022-10-18T01:07:11.558Z,13.15
2022-10-18T01:12:23.272Z,14.35
2022-10-18T01:17:31.290Z,14.93
2022-10-18T01:22:40.903Z,16.08
2022-10-18T01:27:49.755Z,16.17
2022-10-18T01:32:57.122Z,17.08
2022-10-18T01:38:04.195Z,17.83
2022-10-18T01:43:09.310Z,16.20
2022-10-18T01:48:15.105Z,16.50
2022-10-18T01:53:29.971Z,16.90
2022-10-18T01:58:38.418Z,15.88
2022-10-18T02:03:47.503Z,16.60
2022-10-18T02:08:56.248Z,16.75
2022-10-18T02:14:04.408Z,16.85
2022-10-18T02:19:14.013Z,17.00
2022-10-18T02:24:18.574Z,17.42
2022-10-18T02:29:21.516Z,17.73
2022-10-18T02:34:30.610Z,17.15
2022-10-18T02:39:36.438Z,17.63
2022-10-18T02:44:39.625Z,17.63
2022-10-18T02:49:43.751Z,16.50
2022-10-18T02:54:46.605Z,17.10
2022-10-18T02:59:49.418Z,18.20
2022-10-18T03:04:53.534Z,18.10
2022-10-18T03:09:56.309Z,17.60
2022-10-18T03:14:59.105Z,16.90
2022-10-18T03:20:03.232Z,16.95
2022-10-18T03:25:06.744Z,18.00
2022-10-18T03:30:13.390Z,16.70
2022-10-18T03:35:17.681Z,19.58
2022-10-18T03:40:20.741Z,17.98
2022-10-18T03:45:27.452Z,19.67
2022-10-18T03:50:34.573Z,18.42
2022-10-18T03:55:38.494Z,18.17
2022-10-18T04:00:41.322Z,19.10
2022-10-18T04:05:45.789Z,20.10
2022-10-18T04:10:48.642Z,19.55
2022-10-18T04:15:51.400Z,20.30
2022-10-18T04:20:55.546Z,19.48
2022-10-18T04:25:58.684Z,20.67
2022-10-18T04:31:01.730Z,19.00
2022-10-18T04:36:06.278Z,21.42
2022-10-18T04:41:09.078Z,21.02
2022-10-18T04:46:11.966Z,21.25
2022-10-18T04:51:16.157Z,20.33
2022-10-18T04:56:19.416Z,22.50
2022-10-18T05:01:22.251Z,21.88
2022-10-18T05:06:26.508Z,20.55
2022-10-18T05:11:29.343Z,21.73
2022-10-18T05:16:33.043Z,19.25
2022-10-18T05:21:37.317Z,19.20
2022-10-18T05:26:40.371Z,20.02
2022-10-18T05:31:43.307Z,19.63
2022-10-18T05:36:49.432Z,19.48
2022-10-18T05:41:52.251Z,20.48
2022-10-18T05:46:55.063Z,19.55
2022-10-18T05:51:59.161Z,20.05
2022-10-18T05:57:01.968Z,18.90
2022-10-18T06:02:04.759Z,19.80
2022-10-18T06:07:11.258Z,27.20
2022-10-18T06:12:14.072Z,26.48
2022-10-18T06:17:16.864Z,20.02
2022-10-18T06:22:21.203Z,18.67
2022-10-18T06:27:23.948Z,19.88
2022-10-18T06:32:26.706Z,17.33
2022-10-18T06:37:31.752Z,21.90
2022-10-18T06:42:34.914Z,14.93
2022-10-18T06:47:37.879Z,22.23
2022-10-18T06:52:42.431Z,14.60
2022-10-18T06:57:45.638Z,16.02
2022-10-18T07:02:48.599Z,98.18
2022-10-18T07:07:55.757Z,22.13
2022-10-18T07:13:26.992Z,16.52
2022-10-18T07:23:45.941Z,14.90
2022-10-18T07:28:52.281Z,13.32
2022-10-18T07:33:55.343Z,13.68
2022-10-18T07:39:00.678Z,12.68
2022-10-18T07:44:04.861Z,12.88
2022-10-18T07:49:07.719Z,12.43
2022-10-18T07:54:12.166Z,13.68
2022-10-18T07:59:15.063Z,13.77
2022-10-18T08:04:17.959Z,12.85
2022-10-18T08:09:22.116Z,12.07
2022-10-18T08:14:25.135Z,12.98
2022-10-18T08:19:27.869Z,13.35
2022-10-18T08:24:32.105Z,12.35
2022-10-18T08:29:34.950Z,11.65
2022-10-18T08:39:42.830Z,31.42
2022-10-18T08:44:47.092Z,10.57
2022-10-18T08:49:53.016Z,17.45
2022-10-18T08:55:03.792Z,12.57
2022-10-18T09:00:16.854Z,12.10
2022-10-18T09:05:29.131Z,12.05
2022-10-18T09:10:44.640Z,11.98
2022-10-18T09:15:56.167Z,12.50
2022-10-18T09:21:00.639Z,24.70
2022-10-18T09:26:11.723Z,11.65
2022-10-18T09:31:20.074Z,10.10
2022-10-18T09:36:25.384Z,9.85
2022-10-18T09:41:35.677Z,10.40
2022-10-18T09:46:41.911Z,9.60
2022-10-18T09:51:46.037Z,10.65
2022-10-18T09:56:53.267Z,11.20
2022-10-18T10:01:56.482Z,13.38
2022-10-18T10:07:02.324Z,9.25
2022-10-18T10:12:07.824Z,8.50
2022-10-18T10:17:23.650Z,10.25
2022-10-18T10:22:33.244Z,10.48
2022-10-18T10:27:43.491Z,10.27
2022-10-18T10:32:49.146Z,10.35
2022-10-18T10:37:53.390Z,9.77
2022-10-18T10:43:18.170Z,9.73
2022-10-18T10:48:33.515Z,9.98
2022-10-18T10:53:41.228Z,8.75
2022-10-18T10:58:45.847Z,8.27
2022-10-18T11:03:50.743Z,7.25
2022-10-18T11:08:57.285Z,8.07
2022-10-18T11:14:30.288Z,6.63
2022-10-18T11:19:40.116Z,6.47
2022-10-18T11:24:43.336Z,5.20
2022-10-18T11:30:01.844Z,4.32
2022-10-18T11:40:33.604Z,5.00
2022-10-18T11:45:47.758Z,5.05
2022-10-18T11:50:59.752Z,5.45
2022-10-18T11:56:14.855Z,16.58
2022-10-18T12:01:28.707Z,5.45
2022-10-18T12:06:36.042Z,4.60
2022-10-18T12:11:47.184Z,5.00
2022-10-18T12:17:06.779Z,5.22
2022-10-18T12:22:21.829Z,5.00
2022-10-18T12:27:33.866Z,5.57
2022-10-18T12:32:38.819Z,3.30
2022-10-18T12:38:04.510Z,2.65
2022-10-18T12:43:18.902Z,2.10
2022-10-18T12:48:32.796Z,2.13
2022-10-18T12:53:36.473Z,3.10
2022-10-18T12:58:39.176Z,2.55
2022-10-18T13:03:54.048Z,3.25
2022-10-18T13:09:20.771Z,3.90
2022-10-18T13:15:07.066Z,3.67
2022-10-18T13:20:27.326Z,1.77
2022-10-18T13:25:37.608Z,1.40
2022-10-18T13:30:48.842Z,2.10
2022-10-18T13:35:55.991Z,1.30
2022-10-18T13:41:06.808Z,1.77
2022-10-18T13:46:09.773Z,2.20
2022-10-18T13:51:36.440Z,1.67
2022-10-18T13:56:57.488Z,1.80
2022-10-18T14:02:50.646Z,1.70
2022-10-18T14:08:02.553Z,2.30
2022-10-18T14:13:14.876Z,1.90
2022-10-18T14:18:23.074Z,2.15
2022-10-18T14:28:54.948Z,1.40
2022-10-18T14:33:57.881Z,1.92
2022-10-18T14:39:05.209Z,1.50
2022-10-18T14:44:19.428Z,1.33
2022-10-18T14:49:22.898Z,1.80
2022-10-18T14:54:32.318Z,1.85
2022-10-18T14:59:45.972Z,1.40
2022-10-18T15:04:56.909Z,1.90
2022-10-18T15:10:03.990Z,1.50
2022-10-18T15:15:09.084Z,1.95
2022-10-18T15:20:21.417Z,1.90
2022-10-18T15:25:31.833Z,1.88
2022-10-18T15:30:40.998Z,1.70
2022-10-18T15:35:43.764Z,1.40
2022-10-18T15:40:48.550Z,1.98
2022-10-18T15:45:53.097Z,1.60
2022-10-18T15:50:57.536Z,1.80
2022-10-18T15:56:03.676Z,2.40
2022-10-18T16:01:09.097Z,2.05
2022-10-18T16:06:15.908Z,3.42
2022-10-18T16:11:24.745Z,2.03
2022-10-18T16:16:29.611Z,2.67
2022-10-18T16:21:34.361Z,1.70
2022-10-18T16:26:39.127Z,1.95
2022-10-18T16:31:42.416Z,2.90
2022-10-18T16:36:45.390Z,1.95
2022-10-18T16:41:49.846Z,1.85
2022-10-18T16:46:54.169Z,2.00
2022-10-18T16:52:00.039Z,2.10
2022-10-18T16:57:04.615Z,2.20
2022-10-18T17:02:09.278Z,1.85
2022-10-18T17:07:23.503Z,1.95
2022-10-18T17:12:30.033Z,1.83
2022-10-18T17:17:33.510Z,2.03
2022-10-18T17:22:36.761Z,1.95
2022-10-18T17:27:45.037Z,2.00
2022-10-18T17:37:53.461Z,1.80
2022-10-18T17:42:57.934Z,2.53
2022-10-18T17:48:04.085Z,1.80
2022-10-18T17:53:07.180Z,2.20
2022-10-18T17:58:11.646Z,1.70
2022-10-18T18:03:17.809Z,2.78
2022-10-18T18:08:20.769Z,1.70
2022-10-18T18:13:25.055Z,2.40
2022-10-18T18:18:27.874Z,1.70
2022-10-18T18:23:30.766Z,1.70
2022-10-18T18:28:36.016Z,1.73
2022-10-18T18:33:39.367Z,1.25
2022-10-18T18:38:43.500Z,1.65
2022-10-18T18:43:58.997Z,1.40
2022-10-18T18:49:06.618Z,1.52
2022-10-18T18:54:22.310Z,1.23
2022-10-18T18:59:26.575Z,1.83
2022-10-18T19:04:35.378Z,1.60
2022-10-18T19:10:29.841Z,1.60
2022-10-18T19:15:46.089Z,1.92
2022-10-18T19:20:49.239Z,2.13
2022-10-18T19:25:52.187Z,1.83
2022-10-18T19:30:58.314Z,1.67
2022-10-18T19:36:01.318Z,1.40
2022-10-18T19:41:04.147Z,1.40
2022-10-18T19:46:08.460Z,1.85
2022-10-18T19:51:17.290Z,1.60
2022-10-18T19:56:25.418Z,1.70
2022-10-18T20:01:30.471Z,1.60
2022-10-18T20:06:33.731Z,1.60
2022-10-18T20:11:37.404Z,1.23
2022-10-18T20:16:41.611Z,1.40
2022-10-18T20:21:44.476Z,2.10
2022-10-18T20:26:47.419Z,1.60
2022-10-18T20:31:55.518Z,1.63
2022-10-18T20:36:58.353Z,1.40
2022-10-18T20:42:01.257Z,1.30
2022-10-18T20:47:05.508Z,1.45
2022-10-18T20:52:08.656Z,1.63
2022-10-18T20:57:11.494Z,1.48
2022-10-18T21:02:15.977Z,1.63
2022-10-18T21:07:18.861Z,2.05
2022-10-18T21:12:21.703Z,1.33
2022-10-18T21:17:25.935Z,1.20
2022-10-18T21:22:28.736Z,1.50
2022-10-18T21:27:31.488Z,1.27
2022-10-18T21:32:36.117Z,1.30
2022-10-18T21:37:39.108Z,1.17
2022-10-18T21:42:41.912Z,1.25
2022-10-18T21:47:47.600Z,1.45
2022-10-18T21:52:50.651Z,1.33
2022-10-18T21:57:53.467Z,1.50
2022-10-18T22:03:08.720Z,1.30
2022-10-18T22:08:11.513Z,1.13
2022-10-18T22:13:14.312Z,1.40
2022-10-18T22:18:18.708Z,0.88
2022-10-18T22:23:21.873Z,1.77
2022-10-18T22:28:24.893Z,1.00
2022-10-18T22:33:29.860Z,1.30
2022-10-18T22:38:33.934Z,1.15
2022-10-18T22:43:37.632Z,1.02
2022-10-18T22:48:42.502Z,1.23
2022-10-18T22:53:45.984Z,1.17
2022-10-18T22:58:49.080Z,1.10
2022-10-18T23:03:57.330Z,1.10
2022-10-18T23:09:01.807Z,1.30
2022-10-18T23:14:06.108Z,1.15
2022-10-18T23:19:15.748Z,1.65
2022-10-18T23:24:18.604Z,1.67
2022-10-18T23:29:21.420Z,1.48
2022-10-18T23:34:25.594Z,1.80
2022-10-18T23:39:28.359Z,1.17
2022-10-18T23:44:31.285Z,1.75
2022-10-18T23:49:35.441Z,1.10
2022-10-18T23:54:38.408Z,1.70
2022-10-18T23:59:41.173Z,1.67
